LIMC Airport Information

Runway Information
Runway 17L Length 12861 ft width 197 ft
Elevation 745 ft Threshold 3094 ft Heading 170
Runway 35R Length 12861 ft Width 197 ft
Elevation 691 ft Threshold 0 ft Heading 350
Runway 17R Length 12861 ft width 197 ft
Elevation 764 ft Threshold 0 ft Heading 170
Runway 35L Length 12861 ft Width 197 ft
Elevation 696 ft Threshold 1329 ft Heading 350
Airport Frequencies
Type APP Name MILANO APP Frequency 132.7 MHZ
Type ATIS Name ATIS Frequency 120.025 MHZ
Type CLD Name CLNC DEL Frequency 120.9 MHZ
Type DEP Name MILANO DEP Frequency 126.75 MHZ
Type GND Name GND Frequency 121.9 MHZ
Type TWR Name TWR Frequency 119 MHZ
Airport Navaids
Type VOR-DME Name Malpensa Frequency 111200 KHZ
Type NDB Name Malpensa Frequency 364 KHZ
Airport Weather Information & NOTAM
ADDS - METARS form results

(2202 UTC 24 May 2019)
Data provider http://aviationweather.gov/metar/data/
 
METAR text: LIMC 242150Z 13005KT CAVOK 18/12 Q1013 NOSIG
Conditions at: LIMC (MILANO/MALPENSA , IT) observed 2150 UTC 24 May 2019
Temperature: 18.0°C (64°F)
Dewpoint: 12.0°C (54°F) [RH = 68%]
Pressure (altimeter): 29.91 inches Hg (1013.0 mb)
Winds: from the SE (130 degrees) at 6 MPH (5 knots; 2.6 m/s)
Visibility: 6 or more miles (10+ km)
Ceiling: ceiling and visibility are OK
Clouds: unknown
Weather: no significant weather observed at this time

METAR text: LIMC 242120Z 13008KT CAVOK 19/13 Q1013 NOSIG
Conditions at: LIMC (MILANO/MALPENSA , IT) observed 2120 UTC 24 May 2019
Temperature: 19.0°C (66°F)
Dewpoint: 13.0°C (55°F) [RH = 68%]
Pressure (altimeter): 29.91 inches Hg (1013.0 mb)
Winds: from the SE (130 degrees) at 9 MPH (8 knots; 4.1 m/s)
Visibility: 6 or more miles (10+ km)
Ceiling: ceiling and visibility are OK
Clouds: unknown
Weather: no significant weather observed at this time

Forecast for: LIMC (MILANO/MALPENSA , IT)
Text: TAF LIMC 241700Z 2418/2524 VRB05KT 9999 SCT050
Forecast period: 1800 UTC 24 May 2019 to 0000 UTC 26 May 2019
Forecast type: FROM: standard forecast or significant change
Winds: variable direction winds at 6 MPH (5 knots; 2.6 m/s)
Visibility: 6 or more miles 10+ km)
Ceiling: at least 12,000 feet AGL
Clouds: scattered clouds at 5000 feet AGL
Weather: no significant weather forecast for this period
Text: PROB40
Forecast period: 1800 UTC 24 May 2019 to 0200 UTC 25 May 2019
Forecast type: TEMPORARY: The following changes expected for less than half the time period
Visibility: missing
Ceiling: unknown
Clouds: missing
Weather: TSRA  (rain associated with thunderstorm(s))
Text: TEMPO 2418/2502 TSRA
Forecast period: 0200 UTC 25 May 2019 to 0000 UTC 26 May 2019
Forecast type: TEMPORARY: The following changes expected for less than half the time period
Visibility: 2.49 miles (4.01 km)
Ceiling: 1200 feet AGL
Clouds: broken clouds at 1200 feet AGL
Weather: TSRA  (rain associated with thunderstorm(s))